Darstellungsparameter: Aktuell verwendete Einstellungen:
Skalierung der Graphiken ... ?
xyx+y,   Skalierungsfaktor:      Skalierung: Modus: x, Faktor: 1
Darstellungszeitraum ... ?
Vom - - bis: - -   Zeitraum: 22.04.2008 - 24.04.2008
Min/Max/Avg-Anzeige ... ?
Zeige MMA aktuell
Zeige MMA Monat
Zeige MMA alles
Zeige --A aktuell
Zeige --A Monat
Zeige --A alles
Keine MMA-Anzeige
MMA:
Average (ber die Originaldaten)
MMA-Basis: 22.04.2008 - 24.04.2008
Quicknavigation für Darstellung... ?
Tage:      1T, 2T, 3T, 5T -1T -2T -3T -5T +1T +2T +3T +5T
Wochen: 1W, 2W, 3W -1W -2W -3W +1W +2W +3W
Monate: 1M, 3M, 6M -1M -3M -6M +1M +3M +6M
Jahre:    1J, 3J, 5J, 10J -1J -3J -5J -10J +1J +3J +5J +10J
Nutze für die Darstellung ... ?
Originaldaten oder Mittelwerte auf ...
Stundenbasis Tagesbasis Wochenbasis
Monatsbasis Jahresbasis      Datenbasis: Original-Daten
Darstellen als:
Statistik (Auto) Statistik J:M      Darstellung:
Zur Graphik,    zurück zur Übersicht aller Sensoren.
 
Tabellarische Datenbersicht: ?
 
Sensor: Nr:Datum:Temp:Abs-Feuchte:Windchill:Wind:
Aussen-T/F 1 22-04-2008 00:04:03 13 C 5.56 g/m*3 13 C 0 km/h
2 22-04-2008 00:16:03 12.5 C 5.61 g/m*3 12.5 C 0 km/h
3 22-04-2008 00:28:03 12.6 C 5.75 g/m*3 12.6 C 0 km/h
4 22-04-2008 00:40:03 12.4 C 5.68 g/m*3 12.4 C 0 km/h
5 22-04-2008 00:52:03 12.1 C 5.79 g/m*3 12.1 C 0 km/h
6 22-04-2008 01:04:03 12 C 5.75 g/m*3 12 C 0 km/h
7 22-04-2008 01:16:03 12.1 C 5.79 g/m*3 12.1 C 0 km/h
8 22-04-2008 01:28:03 12.2 C 5.83 g/m*3 12.2 C 0 km/h
9 22-04-2008 01:40:03 12.2 C 5.94 g/m*3 12.2 C 0 km/h
10 22-04-2008 01:52:03 12.1 C 5.79 g/m*3 12.1 C 0 km/h
11 22-04-2008 02:04:03 12.1 C 5.9 g/m*3 12.1 C 0 km/h
12 22-04-2008 02:16:03 12.1 C 5.79 g/m*3 12.1 C 0 km/h
13 22-04-2008 02:28:03 12 C 5.86 g/m*3 12 C 0 km/h
14 22-04-2008 02:40:03 12.1 C 5.9 g/m*3 12.1 C 0 km/h
15 22-04-2008 02:52:03 12.1 C 5.9 g/m*3 12.1 C 0 km/h
16 22-04-2008 03:04:03 12 C 5.97 g/m*3 12 C 0 km/h
17 22-04-2008 03:16:03 11.8 C 6 g/m*3 11.8 C 0 km/h
18 22-04-2008 03:28:04 11.8 C 5.89 g/m*3 11.8 C 0 km/h
19 22-04-2008 03:40:04 11.8 C 5.79 g/m*3 11.8 C 0 km/h
20 22-04-2008 03:52:04 11.8 C 5.79 g/m*3 11.8 C 0 km/h
21 22-04-2008 04:04:04 11.9 C 5.82 g/m*3 11.9 C 0 km/h
22 22-04-2008 04:16:04 11.8 C 5.89 g/m*3 11.8 C 0 km/h
23 22-04-2008 04:28:04 11.7 C 5.86 g/m*3 11.7 C 0 km/h
24 22-04-2008 04:40:04 11.4 C 5.85 g/m*3 11.4 C 0 km/h
25 22-04-2008 04:52:04 11 C 5.91 g/m*3 11 C 0 km/h
Sensor: Nr:Datum:Temp:Abs-Feuchte:Windchill:Wind:
Aussen-T/F 26 22-04-2008 05:04:04 10.8 C 5.93 g/m*3 10.8 C 0 km/h
27 22-04-2008 05:16:04 10.8 C 6.03 g/m*3 10.8 C 0 km/h
28 22-04-2008 05:28:04 10.7 C 6.09 g/m*3 10.7 C 0 km/h
29 22-04-2008 05:40:04 10.5 C 6.01 g/m*3 10.5 C 0 km/h
30 22-04-2008 05:52:04 10.6 C 6.05 g/m*3 10.6 C 0 km/h
31 22-04-2008 06:04:04 10.7 C 6.09 g/m*3 10.7 C 0 km/h
32 22-04-2008 06:16:04 10.7 C 5.99 g/m*3 10.7 C 0 km/h
33 22-04-2008 06:28:04 10.8 C 5.93 g/m*3 10.8 C 0 km/h
34 22-04-2008 06:40:04 10.7 C 5.99 g/m*3 10.7 C 0 km/h
35 22-04-2008 06:52:04 10.6 C 5.95 g/m*3 10.6 C 0 km/h
36 22-04-2008 07:04:03 10.6 C 5.95 g/m*3 10.6 C 0 km/h
37 22-04-2008 07:16:02 10.6 C 6.05 g/m*3 10.6 C 0 km/h
38 22-04-2008 07:28:02 10.8 C 6.13 g/m*3 10.8 C 0 km/h
39 22-04-2008 07:40:02 10.9 C 6.17 g/m*3 10.9 C 0 km/h
40 22-04-2008 07:52:01 11 C 6.11 g/m*3 11 C 0 km/h
41 22-04-2008 08:04:01 11.1 C 6.04 g/m*3 11.1 C 0 km/h
42 22-04-2008 08:16:02 11.2 C 5.98 g/m*3 11.2 C 0 km/h
43 22-04-2008 08:28:02 11.8 C 6.1 g/m*3 11.8 C 0 km/h
44 22-04-2008 08:40:02 12.2 C 6.04 g/m*3 12.2 C 0 km/h
45 22-04-2008 08:52:02 12.3 C 5.75 g/m*3 12.3 C 0 km/h
46 22-04-2008 09:04:03 12.4 C 6.01 g/m*3 12.4 C 0 km/h
47 22-04-2008 09:16:02 12.9 C 6.09 g/m*3 12.9 C 0 km/h
48 22-04-2008 09:28:02 12.6 C 5.97 g/m*3 12.6 C 0 km/h
49 22-04-2008 09:40:02 12.7 C 6.12 g/m*3 12.7 C 0 km/h
50 22-04-2008 09:52:02 13.2 C 5.86 g/m*3 13.2 C 0 km/h
Sensor: Nr:Datum:Temp:Abs-Feuchte:Windchill:Wind:
Aussen-T/F 51 22-04-2008 10:04:02 13.5 C 5.97 g/m*3 13.5 C 0 km/h
52 22-04-2008 10:16:02 13.4 C 5.81 g/m*3 13.4 C 0 km/h
53 22-04-2008 10:28:02 13.4 C 5.81 g/m*3 13.4 C 0 km/h
54 22-04-2008 10:40:01 13.4 C 5.93 g/m*3 13.4 C 0 km/h
55 22-04-2008 10:52:02 13.6 C 5.88 g/m*3 13.6 C 0 km/h
56 22-04-2008 11:04:02 13.4 C 5.81 g/m*3 13.4 C 0 km/h
57 22-04-2008 11:16:02 13.3 C 5.89 g/m*3 13.3 C 0 km/h
58 22-04-2008 11:28:02 13.1 C 5.93 g/m*3 13.1 C 0 km/h
59 22-04-2008 11:40:02 13.4 C 6.04 g/m*3 13.4 C 0 km/h
60 22-04-2008 11:52:02 13.9 C 6.23 g/m*3 13.9 C 0 km/h
61 22-04-2008 12:04:02 14.3 C 6.14 g/m*3 14.3 C 0 km/h
62 22-04-2008 12:16:01 14.3 C 5.9 g/m*3 14.3 C 0 km/h
63 22-04-2008 12:28:01 14.2 C 5.86 g/m*3 14.2 C 0 km/h
64 22-04-2008 12:40:01 14.4 C 5.93 g/m*3 14.4 C 0 km/h
65 22-04-2008 12:52:01 14.5 C 5.97 g/m*3 14.5 C 0 km/h
66 22-04-2008 13:04:02 14.6 C 6.01 g/m*3 14.6 C 0 km/h
67 22-04-2008 13:16:01 14.6 C 5.88 g/m*3 14.6 C 0 km/h
68 22-04-2008 13:28:01 14.8 C 5.95 g/m*3 14.8 C 0 km/h
69 22-04-2008 13:40:01 15.1 C 5.93 g/m*3 15.1 C 0 km/h
70 22-04-2008 13:52:01 15.2 C 5.84 g/m*3 15.2 C 0 km/h
71 22-04-2008 14:04:02 14.9 C 5.99 g/m*3 14.9 C 0 km/h
72 22-04-2008 14:16:01 14.7 C 6.04 g/m*3 14.7 C 0 km/h
73 22-04-2008 14:28:01 14.5 C 6.09 g/m*3 14.5 C 0 km/h
74 22-04-2008 14:40:01 14.5 C 6.09 g/m*3 14.5 C 0 km/h
75 22-04-2008 14:52:01 14.6 C 6.13 g/m*3 14.6 C 0 km/h
Sensor: Nr:Datum:Temp:Abs-Feuchte:Windchill:Wind:
Aussen-T/F 76 22-04-2008 15:04:02 14.7 C 5.92 g/m*3 14.7 C 0 km/h
77 22-04-2008 15:16:02 14.9 C 5.99 g/m*3 14.9 C 0 km/h
78 22-04-2008 15:28:02 15.4 C 5.91 g/m*3 15.4 C 0 km/h
79 22-04-2008 15:40:01 15.5 C 5.95 g/m*3 15.5 C 0 km/h
80 22-04-2008 15:52:01 15.6 C 5.85 g/m*3 15.6 C 0 km/h
81 22-04-2008 16:04:02 16.1 C 5.89 g/m*3 16.1 C 0 km/h
82 22-04-2008 16:16:02 15.9 C 5.82 g/m*3 15.9 C 0 km/h
83 22-04-2008 16:28:03 16.8 C 5.86 g/m*3 16.8 C 0 km/h
84 22-04-2008 16:40:01 16.4 C 5.86 g/m*3 16.4 C 0 km/h
85 22-04-2008 16:52:02 15.7 C 6.02 g/m*3 15.7 C 0 km/h
86 22-04-2008 17:04:02 15.8 C 5.92 g/m*3 15.8 C 0 km/h
87 22-04-2008 17:16:02 15.6 C 5.98 g/m*3 15.6 C 0 km/h
88 22-04-2008 17:28:03 15.3 C 5.88 g/m*3 15.3 C 0 km/h
89 22-04-2008 17:40:02 15 C 5.9 g/m*3 15 C 0 km/h
90 22-04-2008 17:52:02 14.9 C 6.12 g/m*3 14.9 C 0 km/h
91 22-04-2008 18:04:02 14.8 C 5.95 g/m*3 14.8 C 0 km/h
92 22-04-2008 18:16:02 14.7 C 5.92 g/m*3 14.7 C 0 km/h
93 22-04-2008 18:28:02 14.5 C 5.72 g/m*3 14.5 C 0 km/h
94 22-04-2008 18:40:02 14.5 C 5.72 g/m*3 14.5 C 0 km/h
95 22-04-2008 18:52:02 14.5 C 5.72 g/m*3 14.5 C 0 km/h
96 22-04-2008 19:04:03 14.5 C 5.72 g/m*3 14.5 C 0 km/h
97 22-04-2008 19:16:02 14.2 C 5.74 g/m*3 14.2 C 0 km/h
98 22-04-2008 19:28:02 14 C 5.67 g/m*3 14 C 0 km/h
99 22-04-2008 19:40:02 13.8 C 5.84 g/m*3 13.8 C 0 km/h
100 22-04-2008 19:52:01 13.7 C 5.8 g/m*3 13.7 C 0 km/h
Sensor: Nr:Datum:Temp:Abs-Feuchte:Windchill:Wind:
Aussen-T/F 101 22-04-2008 20:04:01 13.5 C 5.73 g/m*3 13.5 C 0 km/h
102 22-04-2008 20:16:02 13.3 C 5.78 g/m*3 13.3 C 0 km/h
103 22-04-2008 20:28:02 13.1 C 5.93 g/m*3 13.1 C 0 km/h
104 22-04-2008 20:40:02 12.4 C 5.79 g/m*3 12.4 C 0 km/h
105 22-04-2008 20:52:02 12.8 C 5.82 g/m*3 12.8 C 0 km/h
106 22-04-2008 21:04:02 12.7 C 6.12 g/m*3 12.7 C 0 km/h
107 22-04-2008 21:16:02 12.6 C 6.08 g/m*3 12.6 C 0 km/h
108 22-04-2008 21:28:02 12.5 C 6.16 g/m*3 12.5 C 0 km/h
109 22-04-2008 21:40:02 12.3 C 6.08 g/m*3 12.3 C 0 km/h
110 22-04-2008 21:52:01 12.1 C 6.01 g/m*3 12.1 C 0 km/h
111 22-04-2008 22:04:01 12 C 6.07 g/m*3 12 C 0 km/h
112 22-04-2008 22:16:02 11.8 C 6.1 g/m*3 11.8 C 0 km/h
113 22-04-2008 22:28:02 11.7 C 6.17 g/m*3 11.7 C 0 km/h
114 22-04-2008 22:40:01 11.7 C 6.17 g/m*3 11.7 C 0 km/h
115 22-04-2008 22:52:02 11.7 C 6.17 g/m*3 11.7 C 0 km/h
116 22-04-2008 23:04:02 11.7 C 6.28 g/m*3 11.7 C 0 km/h
117 22-04-2008 23:16:02 11.4 C 6.26 g/m*3 11.4 C 0 km/h
118 22-04-2008 23:28:02 10.9 C 6.17 g/m*3 10.9 C 0 km/h
119 22-04-2008 23:40:02 10.5 C 6.21 g/m*3 10.5 C 0 km/h
120 22-04-2008 23:52:02 10.2 C 6.19 g/m*3 10.2 C 0 km/h
121 23-04-2008 00:04:01 10.2 C 6.28 g/m*3 10.2 C 0 km/h
122 23-04-2008 00:16:01 10.1 C 6.24 g/m*3 10.1 C 0 km/h
123 23-04-2008 00:28:01 10 C 6.2 g/m*3 10 C 0 km/h
124 23-04-2008 00:40:01 9.9 C 6.35 g/m*3 9.9 C 0 km/h
125 23-04-2008 00:52:02 10 C 6.3 g/m*3 10 C 0 km/h
Sensor: Nr:Datum:Temp:Abs-Feuchte:Windchill:Wind:
Aussen-T/F 126 23-04-2008 01:04:01 10 C 6.39 g/m*3 10 C 0 km/h
127 23-04-2008 01:16:02 10 C 6.39 g/m*3 10 C 0 km/h
128 23-04-2008 01:28:02 10.1 C 6.43 g/m*3 10.1 C 0 km/h
129 23-04-2008 01:40:02 10.2 C 6.47 g/m*3 10.2 C 0 km/h
130 23-04-2008 01:52:02 10.2 C 6.47 g/m*3 10.2 C 0 km/h
131 23-04-2008 02:04:02 9.9 C 6.44 g/m*3 9.9 C 0 km/h
132 23-04-2008 02:16:02 9.8 C 6.49 g/m*3 9.8 C 0 km/h
133 23-04-2008 02:28:02 9.8 C 6.49 g/m*3 9.8 C 0 km/h
134 23-04-2008 02:40:03 9.6 C 6.5 g/m*3 9.6 C 0 km/h
135 23-04-2008 02:53:04 9.4 C 6.51 g/m*3 9.4 C 0 km/h
136 23-04-2008 03:05:04 9.2 C 6.43 g/m*3 9.2 C 0 km/h
137 23-04-2008 03:17:04 9.1 C 6.48 g/m*3 9.1 C 0 km/h
138 23-04-2008 03:29:04 8.7 C 6.49 g/m*3 8.7 C 0 km/h
139 23-04-2008 03:41:02 8.5 C 6.49 g/m*3 8.5 C 0 km/h
140 23-04-2008 03:53:02 8.1 C 6.24 g/m*3 8.1 C 0 km/h
141 23-04-2008 04:05:02 8 C 6.37 g/m*3 8 C 0 km/h
142 23-04-2008 04:17:02 7.8 C 6.37 g/m*3 7.8 C 0 km/h
143 23-04-2008 04:29:02 7.5 C 6.32 g/m*3 7.5 C 0 km/h
144 23-04-2008 04:41:02 7.4 C 6.36 g/m*3 7.4 C 0 km/h
145 23-04-2008 04:53:03 7.2 C 6.28 g/m*3 7.2 C 0 km/h
146 23-04-2008 05:05:02 7 C 6.28 g/m*3 7 C 0 km/h
147 23-04-2008 05:17:02 6.8 C 6.27 g/m*3 6.8 C 0 km/h
148 23-04-2008 05:29:02 6.7 C 6.31 g/m*3 6.7 C 0 km/h
149 23-04-2008 05:41:03 6.5 C 6.22 g/m*3 6.5 C 0 km/h
150 23-04-2008 05:53:03 6.4 C 6.18 g/m*3 6.4 C 0 km/h
Sensor: Nr:Datum:Temp:Abs-Feuchte:Windchill:Wind:
Aussen-T/F 151 23-04-2008 06:05:02 6.4 C 6.26 g/m*3 6.4 C 0 km/h
152 23-04-2008 06:17:02 6.3 C 6.29 g/m*3 6.3 C 0 km/h
153 23-04-2008 06:29:02 6.1 C 6.21 g/m*3 6.1 C 0 km/h
154 23-04-2008 06:41:03 6.1 C 6.21 g/m*3 6.1 C 0 km/h
155 23-04-2008 06:53:02 6.1 C 6.28 g/m*3 6.1 C 0 km/h
156 23-04-2008 07:05:02 6.2 C 6.32 g/m*3 6.2 C 0 km/h
157 23-04-2008 07:17:02 6.4 C 6.41 g/m*3 6.4 C 0 km/h
158 23-04-2008 07:29:02 6.5 C 6.45 g/m*3 6.5 C 0 km/h
159 23-04-2008 07:41:02 6.9 C 6.62 g/m*3 6.9 C 0 km/h
160 23-04-2008 07:53:02 7 C 6.43 g/m*3 7 C 0 km/h
161 23-04-2008 08:05:02 7 C 6.35 g/m*3 7 C 0 km/h
162 23-04-2008 08:17:02 7 C 6.43 g/m*3 7 C 0 km/h
163 23-04-2008 08:29:02 7.4 C 6.6 g/m*3 7.4 C 0 km/h
164 23-04-2008 08:41:02 7.7 C 6.73 g/m*3 7.7 C 0 km/h
165 23-04-2008 08:53:02 7.9 C 6.74 g/m*3 7.9 C 0 km/h
166 23-04-2008 09:05:01 8.3 C 6.74 g/m*3 8.3 C 0 km/h
167 23-04-2008 09:17:02 8.7 C 6.83 g/m*3 8.7 C 0 km/h
168 23-04-2008 09:29:02 9.3 C 6.83 g/m*3 9.3 C 0 km/h
169 23-04-2008 09:41:02 10 C 6.95 g/m*3 10 C 0 km/h
170 23-04-2008 09:53:02 10.9 C 7.06 g/m*3 10.9 C 0 km/h
171 23-04-2008 10:05:02 11.5 C 7.02 g/m*3 11.5 C 0 km/h
172 23-04-2008 10:17:02 12.5 C 6.93 g/m*3 12.5 C 0 km/h
173 23-04-2008 10:29:02 13.1 C 6.39 g/m*3 13.1 C 0 km/h
174 23-04-2008 10:41:03 13.8 C 6.31 g/m*3 13.8 C 0 km/h
175 23-04-2008 10:53:02 14.5 C 5.85 g/m*3 14.5 C 0 km/h
Sensor: Nr:Datum:Temp:Abs-Feuchte:Windchill:Wind:
Aussen-T/F 176 23-04-2008 11:05:02 15.4 C 5.52 g/m*3 15.4 C 0 km/h
177 23-04-2008 11:17:02 15.5 C 5.42 g/m*3 15.5 C 0 km/h
178 23-04-2008 11:29:02 16.3 C 5.69 g/m*3 16.3 C 0 km/h
179 23-04-2008 11:41:02 16.4 C 5.58 g/m*3 16.4 C 0 km/h
180 23-04-2008 11:53:02 17.1 C 5.53 g/m*3 17.1 C 0 km/h
181 23-04-2008 12:05:02 17.8 C 5.77 g/m*3 17.8 C 0 km/h
182 23-04-2008 12:17:02 18.1 C 5.25 g/m*3 18.1 C 0 km/h
183 23-04-2008 12:29:02 17.9 C 5.19 g/m*3 17.9 C 0 km/h
184 23-04-2008 12:41:02 18.5 C 5.06 g/m*3 18.5 C 0 km/h
185 23-04-2008 12:53:02 19.2 C 5.11 g/m*3 19.2 C 0 km/h
186 23-04-2008 13:05:01 18.9 C 5.02 g/m*3 18.9 C 0 km/h
187 23-04-2008 13:17:01 19.7 C 4.75 g/m*3 19.7 C 0 km/h
188 23-04-2008 13:29:01 19.7 C 4.58 g/m*3 19.7 C 0 km/h
189 23-04-2008 13:41:02 19 C 4.56 g/m*3 19 C 0 km/h
190 23-04-2008 13:53:01 18.5 C 4.75 g/m*3 18.5 C 0 km/h
191 23-04-2008 14:05:02 19.1 C 4.75 g/m*3 19.1 C 0 km/h
192 23-04-2008 14:17:01 19.8 C 4.78 g/m*3 19.8 C 0 km/h
193 23-04-2008 14:29:01 20.4 C 4.25 g/m*3 20.4 C 0 km/h
194 23-04-2008 14:41:01 20.3 C 4.22 g/m*3 20.3 C 0 km/h
195 23-04-2008 14:53:01 21.1 C 3.69 g/m*3 21.1 C 0 km/h
196 23-04-2008 15:05:01 23.1 C 4.13 g/m*3 23.1 C 0 km/h
197 23-04-2008 15:17:02 21.1 C 3.69 g/m*3 21.1 C 0 km/h
198 23-04-2008 15:29:02 21.6 C 3.79 g/m*3 21.6 C 0 km/h
199 23-04-2008 15:41:02 22.4 C 3.97 g/m*3 22.4 C 0 km/h
200 23-04-2008 15:53:02 22.1 C 3.9 g/m*3 22.1 C 0 km/h
Sensor: Nr:Datum:Temp:Abs-Feuchte:Windchill:Wind:
Aussen-T/F 201 23-04-2008 16:05:02 21.6 C 3.79 g/m*3 21.6 C 0 km/h
202 23-04-2008 16:17:01 20.9 C 3.82 g/m*3 20.9 C 0 km/h
203 23-04-2008 16:29:01 20.4 C 4.07 g/m*3 20.4 C 0 km/h
204 23-04-2008 16:41:02 21.6 C 4.36 g/m*3 21.6 C 0 km/h
205 23-04-2008 16:53:02 21.7 C 4.01 g/m*3 21.7 C 0 km/h
206 23-04-2008 17:05:02 20.4 C 4.25 g/m*3 20.4 C 0 km/h
207 23-04-2008 17:17:01 20 C 4.32 g/m*3 20 C 0 km/h
208 23-04-2008 17:29:01 21.9 C 4.05 g/m*3 21.9 C 0 km/h
209 23-04-2008 17:41:01 22.1 C 3.9 g/m*3 22.1 C 0 km/h
210 23-04-2008 17:53:01 22 C 3.88 g/m*3 22 C 0 km/h
211 23-04-2008 18:05:02 21.3 C 4.1 g/m*3 21.3 C 0 km/h
212 23-04-2008 18:17:02 20.8 C 4.16 g/m*3 20.8 C 0 km/h
213 23-04-2008 18:29:03 21.3 C 4.1 g/m*3 21.3 C 0 km/h
214 23-04-2008 18:41:01 21 C 4.21 g/m*3 21 C 0 km/h
215 23-04-2008 18:53:02 20.5 C 4.45 g/m*3 20.5 C 0 km/h
216 23-04-2008 19:05:01 19.8 C 4.61 g/m*3 19.8 C 0 km/h
217 23-04-2008 19:17:02 19.9 C 4.81 g/m*3 19.9 C 0 km/h
218 23-04-2008 19:29:02 19.6 C 4.73 g/m*3 19.6 C 0 km/h
219 23-04-2008 19:41:02 19.1 C 5.08 g/m*3 19.1 C 0 km/h
220 23-04-2008 19:53:02 18.4 C 5.35 g/m*3 18.4 C 0 km/h
221 23-04-2008 20:05:02 17.5 C 5.37 g/m*3 17.5 C 0 km/h
222 23-04-2008 20:17:02 16.8 C 5.29 g/m*3 16.8 C 0 km/h
223 23-04-2008 20:29:02 16.2 C 5.24 g/m*3 16.2 C 0 km/h
224 23-04-2008 20:41:02 15.8 C 5.38 g/m*3 15.8 C 0 km/h
225 23-04-2008 20:53:02 15.4 C 5.39 g/m*3 15.4 C 0 km/h
Sensor: Nr:Datum:Temp:Abs-Feuchte:Windchill:Wind:
Aussen-T/F 226 23-04-2008 21:05:02 15.4 C 5.52 g/m*3 15.4 C 0 km/h
227 23-04-2008 21:17:02 15.2 C 5.45 g/m*3 15.2 C 0 km/h
228 23-04-2008 21:29:02 14.9 C 5.61 g/m*3 14.9 C 0 km/h
229 23-04-2008 21:41:02 14.5 C 5.72 g/m*3 14.5 C 0 km/h
230 23-04-2008 21:53:01 14.4 C 5.81 g/m*3 14.4 C 0 km/h
231 23-04-2008 22:05:02 14.2 C 5.74 g/m*3 14.2 C 0 km/h
232 23-04-2008 22:17:02 14.4 C 5.93 g/m*3 14.4 C 0 km/h
233 23-04-2008 22:29:02 14.5 C 5.97 g/m*3 14.5 C 0 km/h
234 23-04-2008 22:41:01 14.6 C 5.88 g/m*3 14.6 C 0 km/h
235 23-04-2008 22:53:01 14.7 C 5.79 g/m*3 14.7 C 0 km/h
236 23-04-2008 23:05:02 14.9 C 5.99 g/m*3 14.9 C 0 km/h
237 23-04-2008 23:17:01 14.9 C 6.12 g/m*3 14.9 C 0 km/h
238 23-04-2008 23:29:01 15 C 6.41 g/m*3 15 C 0 km/h
239 23-04-2008 23:41:02 15 C 6.54 g/m*3 15 C 0 km/h
240 23-04-2008 23:53:02 14.8 C 6.84 g/m*3 14.8 C 0 km/h
241 24-04-2008 00:05:01 14.7 C 7.18 g/m*3 14.7 C 0 km/h
242 24-04-2008 00:17:01 14.3 C 7.62 g/m*3 14.3 C 0 km/h
243 24-04-2008 00:29:01 13.7 C 8.05 g/m*3 13.7 C 0 km/h
244 24-04-2008 00:41:01 13.3 C 8.2 g/m*3 13.3 C 0 km/h
245 24-04-2008 00:53:02 13.2 C 8.5 g/m*3 13.2 C 0 km/h
246 24-04-2008 01:05:01 13 C 8.51 g/m*3 13 C 0 km/h
247 24-04-2008 01:17:02 12.9 C 8.34 g/m*3 12.9 C 0 km/h
248 24-04-2008 01:29:02 12.8 C 8.51 g/m*3 12.8 C 0 km/h
249 24-04-2008 01:41:01 12.5 C 8.58 g/m*3 12.5 C 0 km/h
250 24-04-2008 01:53:02 12.4 C 8.63 g/m*3 12.4 C 0 km/h
Sensor: Nr:Datum:Temp:Abs-Feuchte:Windchill:Wind:
Aussen-T/F 251 24-04-2008 02:05:02 12.4 C 8.74 g/m*3 12.4 C 0 km/h
252 24-04-2008 02:17:02 12.3 C 8.69 g/m*3 12.3 C 0 km/h
253 24-04-2008 02:29:02 12.2 C 8.74 g/m*3 12.2 C 0 km/h
254 24-04-2008 02:41:02 12.2 C 8.96 g/m*3 12.2 C 0 km/h
255 24-04-2008 02:53:01 12.1 C 9.01 g/m*3 12.1 C 0 km/h
256 24-04-2008 03:05:01 12.1 C 9.01 g/m*3 12.1 C 0 km/h
257 24-04-2008 03:17:01 12 C 9.06 g/m*3 12 C 0 km/h
258 24-04-2008 03:29:01 11.8 C 9.05 g/m*3 11.8 C 0 km/h
259 24-04-2008 03:41:01 11.7 C 9.1 g/m*3 11.7 C 0 km/h
260 24-04-2008 03:53:01 11.6 C 9.04 g/m*3 11.6 C 0 km/h
261 24-04-2008 04:05:01 11.7 C 9.1 g/m*3 11.7 C 0 km/h
262 24-04-2008 04:17:02 11.6 C 9.04 g/m*3 11.6 C 0 km/h
263 24-04-2008 04:29:02 11.7 C 9.2 g/m*3 11.7 C 0 km/h
264 24-04-2008 04:41:02 11.7 C 9.2 g/m*3 11.7 C 0 km/h
265 24-04-2008 04:53:01 11.7 C 9.2 g/m*3 11.7 C 0 km/h
266 24-04-2008 05:05:01 11.8 C 9.37 g/m*3 11.8 C 0 km/h
267 24-04-2008 05:17:02 11.8 C 9.26 g/m*3 11.8 C 0 km/h
268 24-04-2008 05:29:02 11.7 C 9.1 g/m*3 11.7 C 0 km/h
269 24-04-2008 05:41:01 11.4 C 8.93 g/m*3 11.4 C 0 km/h
270 24-04-2008 05:53:01 11.1 C 8.66 g/m*3 11.1 C 0 km/h
271 24-04-2008 06:05:01 10.8 C 8.6 g/m*3 10.8 C 0 km/h
272 24-04-2008 06:17:02 10.7 C 8.55 g/m*3 10.7 C 0 km/h
273 24-04-2008 06:29:02 10.6 C 8.49 g/m*3 10.6 C 0 km/h
274 24-04-2008 06:41:01 10.4 C 8.38 g/m*3 10.4 C 0 km/h
275 24-04-2008 06:53:01 10.7 C 8.64 g/m*3 10.7 C 0 km/h
Sensor: Nr:Datum:Temp:Abs-Feuchte:Windchill:Wind:
Aussen-T/F 276 24-04-2008 07:05:01 11 C 8.81 g/m*3 11 C 0 km/h
277 24-04-2008 07:17:02 10.9 C 8.65 g/m*3 10.9 C 0 km/h
278 24-04-2008 07:29:02 11.1 C 8.76 g/m*3 11.1 C 0 km/h
279 24-04-2008 07:41:01 11.3 C 8.87 g/m*3 11.3 C 0 km/h
280 24-04-2008 07:53:01 11.6 C 8.94 g/m*3 11.6 C 0 km/h
281 24-04-2008 08:05:01 11.4 C 8.62 g/m*3 11.4 C 0 km/h
282 24-04-2008 08:17:02 11.4 C 8.62 g/m*3 11.4 C 0 km/h
283 24-04-2008 08:29:02 11.8 C 8.84 g/m*3 11.8 C 0 km/h
284 24-04-2008 08:41:02 11.6 C 8.73 g/m*3 11.6 C 0 km/h
285 24-04-2008 08:53:02 11.7 C 8.68 g/m*3 11.7 C 0 km/h
286 24-04-2008 09:05:01 11.8 C 8.63 g/m*3 11.8 C 0 km/h
287 24-04-2008 09:17:01 11.7 C 8.47 g/m*3 11.7 C 0 km/h
288 24-04-2008 09:29:01 12.2 C 8.52 g/m*3 12.2 C 0 km/h
289 24-04-2008 09:41:02 12.4 C 8.3 g/m*3 12.4 C 0 km/h
290 24-04-2008 09:53:02 12.8 C 8.06 g/m*3 12.8 C 0 km/h
291 24-04-2008 10:05:02 13 C 7.83 g/m*3 13 C 0 km/h
292 24-04-2008 10:17:01 13.4 C 7.56 g/m*3 13.4 C 0 km/h
293 24-04-2008 10:29:01 13.8 C 7.39 g/m*3 13.8 C 0 km/h
294 24-04-2008 10:41:01 14.1 C 6.8 g/m*3 14.1 C 0 km/h
295 24-04-2008 10:53:01 14.4 C 6.55 g/m*3 14.4 C 0 km/h
296 24-04-2008 11:05:02 14.7 C 6.17 g/m*3 14.7 C 0 km/h
297 24-04-2008 11:17:02 15.3 C 6.4 g/m*3 15.3 C 0 km/h
298 24-04-2008 11:29:02 15.4 C 6.04 g/m*3 15.4 C 0 km/h
299 24-04-2008 11:41:01 16.3 C 5.69 g/m*3 16.3 C 0 km/h
300 24-04-2008 11:53:01 16.4 C 5.58 g/m*3 16.4 C 0 km/h
Sensor: Nr:Datum:Temp:Abs-Feuchte:Windchill:Wind:
Aussen-T/F 301 24-04-2008 12:05:01 17 C 5.5 g/m*3 17 C 0 km/h
302 24-04-2008 12:17:02 17.2 C 5.56 g/m*3 17.2 C 0 km/h
303 24-04-2008 12:29:02 17.5 C 5.96 g/m*3 17.5 C 0 km/h
304 24-04-2008 12:41:02 17.6 C 5.55 g/m*3 17.6 C 0 km/h
305 24-04-2008 12:53:02 17.5 C 5.52 g/m*3 17.5 C 0 km/h
306 24-04-2008 13:05:01 18 C 5.38 g/m*3 18 C 0 km/h
307 24-04-2008 13:17:01 18.7 C 5.44 g/m*3 18.7 C 0 km/h
308 24-04-2008 13:29:01 18 C 5.38 g/m*3 18 C 0 km/h
309 24-04-2008 13:41:02 18.1 C 5.25 g/m*3 18.1 C 0 km/h
310 24-04-2008 13:53:01 18.3 C 5 g/m*3 18.3 C 0 km/h
311 24-04-2008 14:05:02 18.5 C 5.38 g/m*3 18.5 C 0 km/h
312 24-04-2008 14:17:01 19.6 C 5.4 g/m*3 19.6 C 0 km/h
313 24-04-2008 14:29:01 19.1 C 5.08 g/m*3 19.1 C 0 km/h
314 24-04-2008 14:41:01 18.7 C 5.28 g/m*3 18.7 C 0 km/h
315 24-04-2008 14:53:01 18.6 C 5.09 g/m*3 18.6 C 0 km/h
316 24-04-2008 15:05:01 18.9 C 5.35 g/m*3 18.9 C 0 km/h
317 24-04-2008 15:17:02 18.7 C 5.12 g/m*3 18.7 C 0 km/h
318 24-04-2008 15:29:02 18.5 C 5.38 g/m*3 18.5 C 0 km/h
319 24-04-2008 15:41:01 18.9 C 5.51 g/m*3 18.9 C 0 km/h
320 24-04-2008 15:53:02 19.1 C 5.08 g/m*3 19.1 C 0 km/h
321 24-04-2008 16:05:01 19.9 C 5.33 g/m*3 19.9 C 0 km/h
322 24-04-2008 16:17:01 20.4 C 4.95 g/m*3 20.4 C 0 km/h
323 24-04-2008 16:29:01 21.3 C 5.03 g/m*3 21.3 C 0 km/h
324 24-04-2008 16:41:02 21.6 C 4.93 g/m*3 21.6 C 0 km/h
325 24-04-2008 16:53:02 20.2 C 4.9 g/m*3 20.2 C 0 km/h
Sensor: Nr:Datum:Temp:Abs-Feuchte:Windchill:Wind:
Aussen-T/F 326 24-04-2008 17:05:01 21.4 C 4.69 g/m*3 21.4 C 0 km/h
327 24-04-2008 17:17:01 21.7 C 4.77 g/m*3 21.7 C 0 km/h
328 24-04-2008 17:29:01 21.4 C 5.25 g/m*3 21.4 C 0 km/h
329 24-04-2008 17:41:01 21.9 C 4.44 g/m*3 21.9 C 0 km/h
330 24-04-2008 17:53:01 21.2 C 4.45 g/m*3 21.2 C 0 km/h
331 24-04-2008 18:05:02 20.4 C 4.42 g/m*3 20.4 C 0 km/h
332 24-04-2008 18:17:02 20.3 C 4.57 g/m*3 20.3 C 0 km/h
333 24-04-2008 18:29:02 19.9 C 4.64 g/m*3 19.9 C 0 km/h
334 24-04-2008 18:41:01 19.9 C 4.64 g/m*3 19.9 C 0 km/h
335 24-04-2008 18:53:01 19.2 C 4.45 g/m*3 19.2 C 0 km/h
336 24-04-2008 19:05:01 18.9 C 4.86 g/m*3 18.9 C 0 km/h
337 24-04-2008 19:17:01 18.7 C 4.96 g/m*3 18.7 C 0 km/h
338 24-04-2008 19:29:01 18.5 C 4.75 g/m*3 18.5 C 0 km/h
339 24-04-2008 19:41:02 18.3 C 4.53 g/m*3 18.3 C 0 km/h
340 24-04-2008 19:53:02 17.9 C 4.58 g/m*3 17.9 C 0 km/h
341 24-04-2008 20:05:01 17.7 C 4.53 g/m*3 17.7 C 0 km/h
342 24-04-2008 20:17:01 17.5 C 4.77 g/m*3 17.5 C 0 km/h
343 24-04-2008 20:29:01 17.3 C 4.57 g/m*3 17.3 C 0 km/h
344 24-04-2008 20:41:01 17.1 C 4.51 g/m*3 17.1 C 0 km/h
345 24-04-2008 20:53:01 16.4 C 4.61 g/m*3 16.4 C 0 km/h
346 24-04-2008 21:05:02 15.7 C 4.55 g/m*3 15.7 C 0 km/h
347 24-04-2008 21:17:02 15.4 C 4.34 g/m*3 15.4 C 0 km/h
348 24-04-2008 21:29:02 15 C 4.36 g/m*3 15 C 0 km/h
349 24-04-2008 21:41:02 14.5 C 4.73 g/m*3 14.5 C 0 km/h
350 24-04-2008 21:53:02 14.4 C 4.7 g/m*3 14.4 C 0 km/h
Sensor: Nr:Datum:Temp:Abs-Feuchte:Windchill:Wind:
Aussen-T/F 351 24-04-2008 22:05:01 14.1 C 4.85 g/m*3 14.1 C 0 km/h
352 24-04-2008 22:17:01 13.7 C 4.97 g/m*3 13.7 C 0 km/h
353 24-04-2008 22:29:01 13.6 C 4.83 g/m*3 13.6 C 0 km/h
354 24-04-2008 22:41:01 13.7 C 4.97 g/m*3 13.7 C 0 km/h
355 24-04-2008 22:53:01 13.8 C 5 g/m*3 13.8 C 0 km/h
356 24-04-2008 23:05:02 13.8 C 5.36 g/m*3 13.8 C 0 km/h
357 24-04-2008 23:17:01 13.8 C 5.36 g/m*3 13.8 C 0 km/h
358 24-04-2008 23:29:01 13.7 C 5.33 g/m*3 13.7 C 0 km/h
359 24-04-2008 23:41:01 13.1 C 5.36 g/m*3 13.1 C 0 km/h
360 24-04-2008 23:53:01 13.5 C 5.85 g/m*3 13.5 C 0 km/h

Legende:
   Min
   Max


Maximal/Minimal-Werte vom 22.04.2008 - 24.04.2008

Sensor Min Max Avg
Temp
(Aussen-T/F)
6.1 °C
23-04-2008  06:29:02
23.1 °C
23-04-2008  15:05:01
14 °C
Abs-Feuchte
(Aussen-T/F)
3.69 g/m*3
23-04-2008  14:53:01
9.37 g/m*3
24-04-2008  05:05:01
6.06 g/m*3
Windchill
(Aussen-T/F)
6.1 C
23-04-2008  06:29:02
23.1 C
23-04-2008  15:05:01
13.96 C

Die Daten stammen von einer Davis Vantage Pro 2 Wetter-Station und werden unter Linux mit der Software wview2wettercgi und aufbereitet. Alle Angaben erfolgen ohne Gewähr für ihre Vollständigkeit oder Richtigkeit.
Kontakt: Rainer Krienke krienke@uni-koblenz.de . Meine Webseiten an der Uni Koblenz oder privat.
Version: $Revision: 0.78 $